DAL3741 KLAS-KSAN
Flight info
| Callsign | DAL3741 |
|---|---|
| Flight time | 0h 47m |
| Altitude | 30000 |
| Route | KLAS RADYR2 LVELL LUCKI1 KSAN |
| Aircraft | B738/M-VGDW/C |
Departure
| Time | 2026-05-04 01:34 |
|---|---|
| Airport | Harry Reid International Airport (KLAS) |
Arrival
| Time | 2026-05-04 02:22 |
|---|---|
| Airport | San Diego International Airport (KSAN) |
| Time | Latitude | Longitude | Altitude | Speed | Heading |
|---|---|---|---|---|---|
| 2026-05-04 01:03 | 36.07989 | -115.13959 | 2187 ft | 0 kts | 352° |
| 2026-05-04 01:16 | 36.07988 | -115.13959 | 2187 ft | 2 kts | 352° |
| 2026-05-04 01:17 | 36.07972 | -115.13956 | 2191 ft | 2 kts | 352° |
| 2026-05-04 01:17 | 36.07956 | -115.13953 | 2189 ft | 2 kts | 352° |
| 2026-05-04 01:17 | 36.07940 | -115.13950 | 2189 ft | 2 kts | 343° |
| 2026-05-04 01:17 | 36.07926 | -115.13941 | 2189 ft | 2 kts | 282° |
| 2026-05-04 01:18 | 36.07925 | -115.13930 | 2188 ft | 1 kts | 259° |
| 2026-05-04 01:21 | 36.07920 | -115.13936 | 2189 ft | 2 kts | 218° |
| 2026-05-04 01:21 | 36.07887 | -115.13949 | 2190 ft | 7 kts | 193° |
| 2026-05-04 01:21 | 36.07835 | -115.13927 | 2188 ft | 9 kts | 127° |
| 2026-05-04 01:21 | 36.07827 | -115.13851 | 2191 ft | 9 kts | 90° |
| 2026-05-04 01:22 | 36.07793 | -115.13793 | 2189 ft | 9 kts | 169° |
| 2026-05-04 01:22 | 36.07754 | -115.13734 | 2190 ft | 12 kts | 94° |
| 2026-05-04 01:22 | 36.07754 | -115.13602 | 2188 ft | 18 kts | 90° |
| 2026-05-04 01:22 | 36.07754 | -115.13430 | 2189 ft | 22 kts | 90° |
| 2026-05-04 01:23 | 36.07754 | -115.13243 | 2188 ft | 21 kts | 90° |
| 2026-05-04 01:23 | 36.07755 | -115.13066 | 2188 ft | 20 kts | 90° |
| 2026-05-04 01:23 | 36.07755 | -115.12905 | 2188 ft | 18 kts | 90° |
| 2026-05-04 01:23 | 36.07755 | -115.12758 | 2187 ft | 17 kts | 90° |
| 2026-05-04 01:24 | 36.07755 | -115.12621 | 2187 ft | 15 kts | 90° |
| 2026-05-04 01:24 | 36.07755 | -115.12499 | 2187 ft | 13 kts | 90° |
| 2026-05-04 01:24 | 36.07755 | -115.12390 | 2187 ft | 12 kts | 90° |
| 2026-05-04 01:24 | 36.07755 | -115.12292 | 2187 ft | 11 kts | 90° |
| 2026-05-04 01:25 | 36.07755 | -115.12256 | 2187 ft | 1 kts | 90° |
| 2026-05-04 01:25 | 36.07755 | -115.12255 | 2187 ft | 0 kts | 90° |
| 2026-05-04 01:25 | 36.07755 | -115.12247 | 2187 ft | 4 kts | 90° |
| 2026-05-04 01:26 | 36.07755 | -115.12175 | 2187 ft | 9 kts | 92° |
| 2026-05-04 01:26 | 36.07747 | -115.12148 | 2187 ft | 0 kts | 123° |
| 2026-05-04 01:31 | 36.07743 | -115.12141 | 2187 ft | 4 kts | 130° |
| 2026-05-04 01:31 | 36.07688 | -115.12124 | 2191 ft | 12 kts | 178° |
| 2026-05-04 01:31 | 36.07644 | -115.12166 | 2189 ft | 4 kts | 268° |
| 2026-05-04 01:32 | 36.07644 | -115.12167 | 2189 ft | 0 kts | 268° |
| 2026-05-04 01:33 | 36.07643 | -115.12285 | 2188 ft | 45 kts | 270° |
| 2026-05-04 01:34 | 36.07642 | -115.12678 | 2189 ft | 93 kts | 270° |
| 2026-05-04 01:34 | 36.07640 | -115.14213 | 2226 ft | 166 kts | 265° |
| 2026-05-04 01:34 | 36.07678 | -115.15673 | 2963 ft | 170 kts | 266° |
| 2026-05-04 01:34 | 36.07708 | -115.17122 | 3785 ft | 166 kts | 266° |
| 2026-05-04 01:35 | 36.07713 | -115.18589 | 4398 ft | 183 kts | 264° |
| 2026-05-04 01:35 | 36.07677 | -115.20276 | 4697 ft | 207 kts | 258° |
| 2026-05-04 01:35 | 36.07379 | -115.22093 | 5018 ft | 225 kts | 254° |
| 2026-05-04 01:35 | 36.07066 | -115.24069 | 5538 ft | 239 kts | 253° |
| 2026-05-04 01:36 | 36.06330 | -115.25857 | 6358 ft | 235 kts | 224° |
| 2026-05-04 01:36 | 36.04896 | -115.26939 | 6896 ft | 251 kts | 201° |
| 2026-05-04 01:36 | 36.03231 | -115.27660 | 7659 ft | 256 kts | 199° |
| 2026-05-04 01:36 | 36.01544 | -115.28368 | 8539 ft | 259 kts | 200° |
| 2026-05-04 01:37 | 35.99825 | -115.29132 | 9352 ft | 265 kts | 200° |
| 2026-05-04 01:37 | 35.98041 | -115.29792 | 10139 ft | 271 kts | 194° |
| 2026-05-04 01:37 | 35.96143 | -115.30281 | 10581 ft | 290 kts | 191° |
| 2026-05-04 01:37 | 35.94254 | -115.30720 | 10750 ft | 314 kts | 191° |
| 2026-05-04 01:38 | 35.92038 | -115.31230 | 11117 ft | 330 kts | 191° |
| 2026-05-04 01:38 | 35.89754 | -115.31762 | 11734 ft | 338 kts | 191° |
| 2026-05-04 01:38 | 35.87441 | -115.32310 | 12543 ft | 339 kts | 191° |
| 2026-05-04 01:38 | 35.85115 | -115.32870 | 13352 ft | 342 kts | 192° |
| 2026-05-04 01:39 | 35.82770 | -115.33440 | 14061 ft | 346 kts | 192° |
| 2026-05-04 01:39 | 35.80398 | -115.34019 | 14733 ft | 350 kts | 192° |
| 2026-05-04 01:39 | 35.78281 | -115.34537 | 15320 ft | 353 kts | 192° |
| 2026-05-04 01:39 | 35.75856 | -115.35131 | 15980 ft | 357 kts | 192° |
| 2026-05-04 01:40 | 35.73403 | -115.35732 | 16621 ft | 362 kts | 192° |
| 2026-05-04 01:40 | 35.71534 | -115.36189 | 17120 ft | 365 kts | 192° |
| 2026-05-04 01:40 | 35.69029 | -115.36802 | 17761 ft | 368 kts | 192° |
| 2026-05-04 01:40 | 35.66503 | -115.37420 | 18357 ft | 373 kts | 193° |
| 2026-05-04 01:41 | 35.63947 | -115.38044 | 18898 ft | 376 kts | 193° |
| 2026-05-04 01:41 | 35.61368 | -115.38659 | 19499 ft | 379 kts | 192° |
| 2026-05-04 01:41 | 35.58717 | -115.38765 | 20126 ft | 385 kts | 182° |
| 2026-05-04 01:41 | 35.56031 | -115.38556 | 20721 ft | 388 kts | 182° |
| 2026-05-04 01:42 | 35.53333 | -115.38328 | 21267 ft | 390 kts | 182° |
| 2026-05-04 01:42 | 35.50612 | -115.38102 | 21774 ft | 393 kts | 184° |
| 2026-05-04 01:42 | 35.47876 | -115.37886 | 22290 ft | 396 kts | 184° |
| 2026-05-04 01:42 | 35.45120 | -115.37679 | 22783 ft | 398 kts | 185° |
| 2026-05-04 01:43 | 35.42349 | -115.37476 | 23273 ft | 400 kts | 186° |
| 2026-05-04 01:43 | 35.39557 | -115.37277 | 23659 ft | 403 kts | 186° |
| 2026-05-04 01:43 | 35.36745 | -115.37078 | 24038 ft | 406 kts | 186° |
| 2026-05-04 01:43 | 35.33954 | -115.36880 | 24402 ft | 409 kts | 186° |
| 2026-05-04 01:44 | 35.31101 | -115.36679 | 24748 ft | 412 kts | 186° |
| 2026-05-04 01:44 | 35.28224 | -115.36476 | 25102 ft | 415 kts | 186° |
| 2026-05-04 01:44 | 35.25331 | -115.36271 | 25449 ft | 418 kts | 186° |
| 2026-05-04 01:44 | 35.22416 | -115.36064 | 25788 ft | 420 kts | 186° |
| 2026-05-04 01:45 | 35.19490 | -115.35857 | 26131 ft | 423 kts | 186° |
| 2026-05-04 01:45 | 35.16541 | -115.35648 | 26468 ft | 425 kts | 186° |
| 2026-05-04 01:45 | 35.10633 | -115.35229 | 27345 ft | 424 kts | 186° |
| 2026-05-04 01:46 | 35.07696 | -115.35022 | 27839 ft | 422 kts | 187° |
| 2026-05-04 01:46 | 35.04762 | -115.34818 | 28167 ft | 424 kts | 187° |
| 2026-05-04 01:46 | 35.01803 | -115.34616 | 28521 ft | 426 kts | 187° |
| 2026-05-04 01:46 | 34.98849 | -115.34411 | 29015 ft | 425 kts | 187° |
| 2026-05-04 01:47 | 34.95902 | -115.34205 | 29527 ft | 423 kts | 187° |
| 2026-05-04 01:47 | 34.92953 | -115.34001 | 29768 ft | 427 kts | 187° |
| 2026-05-04 01:47 | 34.86992 | -115.33588 | 29748 ft | 428 kts | 187° |
| 2026-05-04 01:48 | 34.81098 | -115.33174 | 29753 ft | 423 kts | 187° |
| 2026-05-04 01:48 | 34.78194 | -115.33195 | 29734 ft | 409 kts | 199° |
| 2026-05-04 01:48 | 34.75515 | -115.34070 | 29770 ft | 395 kts | 208° |
| 2026-05-04 01:49 | 34.70347 | -115.36392 | 29737 ft | 396 kts | 210° |
| 2026-05-04 01:49 | 34.65167 | -115.38730 | 29738 ft | 398 kts | 209° |
| 2026-05-04 01:50 | 34.59966 | -115.41027 | 29732 ft | 398 kts | 209° |
| 2026-05-04 01:50 | 34.54790 | -115.43289 | 29727 ft | 397 kts | 209° |
| 2026-05-04 01:51 | 34.49597 | -115.45552 | 29731 ft | 396 kts | 209° |
| 2026-05-04 01:51 | 34.44426 | -115.47804 | 29724 ft | 394 kts | 209° |
| 2026-05-04 01:52 | 34.39276 | -115.50045 | 29733 ft | 392 kts | 209° |
| 2026-05-04 01:52 | 34.34153 | -115.52270 | 29728 ft | 390 kts | 209° |
| 2026-05-04 01:53 | 34.29421 | -115.55148 | 29748 ft | 375 kts | 220° |
| 2026-05-04 01:53 | 34.25005 | -115.58538 | 29747 ft | 377 kts | 219° |
| 2026-05-04 01:54 | 34.20491 | -115.61811 | 29749 ft | 383 kts | 214° |
| 2026-05-04 01:54 | 34.15489 | -115.64249 | 29761 ft | 390 kts | 210° |
| 2026-05-04 01:55 | 34.10405 | -115.66546 | 29766 ft | 390 kts | 210° |
| 2026-05-04 01:55 | 34.05341 | -115.68895 | 29765 ft | 389 kts | 210° |
| 2026-05-04 01:56 | 34.00300 | -115.71267 | 29777 ft | 389 kts | 210° |
| 2026-05-04 01:56 | 33.96113 | -115.73240 | 29772 ft | 388 kts | 210° |
| 2026-05-04 01:57 | 33.91097 | -115.75604 | 29774 ft | 386 kts | 211° |
| 2026-05-04 01:57 | 33.86131 | -115.78043 | 29773 ft | 385 kts | 212° |
| 2026-05-04 01:58 | 33.81178 | -115.80485 | 29773 ft | 385 kts | 212° |
| 2026-05-04 01:58 | 33.76216 | -115.82910 | 29760 ft | 385 kts | 212° |
| 2026-05-04 01:59 | 33.71213 | -115.85258 | 29386 ft | 385 kts | 211° |
| 2026-05-04 01:59 | 33.68740 | -115.86403 | 28923 ft | 379 kts | 211° |
| 2026-05-04 01:59 | 33.66301 | -115.87534 | 28457 ft | 373 kts | 212° |
| 2026-05-04 02:00 | 33.63892 | -115.88657 | 27964 ft | 369 kts | 211° |
| 2026-05-04 02:00 | 33.60742 | -115.90131 | 27326 ft | 364 kts | 211° |
| 2026-05-04 02:00 | 33.59154 | -115.90873 | 27007 ft | 362 kts | 211° |
| 2026-05-04 02:00 | 33.56817 | -115.91966 | 26542 ft | 359 kts | 211° |
| 2026-05-04 02:01 | 33.54496 | -115.93048 | 26078 ft | 356 kts | 211° |
| 2026-05-04 02:01 | 33.52322 | -115.94348 | 25600 ft | 342 kts | 222° |
| 2026-05-04 02:01 | 33.50548 | -115.96162 | 25140 ft | 331 kts | 233° |
| 2026-05-04 02:01 | 33.49152 | -115.98317 | 24685 ft | 325 kts | 238° |
| 2026-05-04 02:02 | 33.47924 | -116.00442 | 24231 ft | 324 kts | 239° |
| 2026-05-04 02:02 | 33.46662 | -116.02676 | 23763 ft | 324 kts | 239° |
| 2026-05-04 02:02 | 33.45396 | -116.04909 | 23287 ft | 324 kts | 239° |
| 2026-05-04 02:02 | 33.44143 | -116.07103 | 22758 ft | 323 kts | 238° |
| 2026-05-04 02:03 | 33.42872 | -116.09310 | 22286 ft | 321 kts | 238° |
| 2026-05-04 02:03 | 33.41607 | -116.11496 | 21829 ft | 319 kts | 238° |
| 2026-05-04 02:03 | 33.40345 | -116.13670 | 21387 ft | 317 kts | 238° |
| 2026-05-04 02:03 | 33.39091 | -116.15828 | 20912 ft | 314 kts | 238° |
| 2026-05-04 02:04 | 33.37850 | -116.17962 | 20504 ft | 311 kts | 237° |
| 2026-05-04 02:04 | 33.36619 | -116.20076 | 20086 ft | 309 kts | 237° |
| 2026-05-04 02:04 | 33.35418 | -116.22135 | 19676 ft | 308 kts | 237° |
| 2026-05-04 02:04 | 33.34121 | -116.24175 | 19207 ft | 311 kts | 229° |
| 2026-05-04 02:05 | 33.32433 | -116.25807 | 18812 ft | 316 kts | 216° |
| 2026-05-04 02:05 | 33.30483 | -116.27051 | 18375 ft | 319 kts | 212° |
| 2026-05-04 02:05 | 33.28478 | -116.28212 | 17895 ft | 322 kts | 210° |
| 2026-05-04 02:05 | 33.26450 | -116.29363 | 17427 ft | 322 kts | 210° |
| 2026-05-04 02:06 | 33.24429 | -116.30515 | 16980 ft | 322 kts | 210° |
| 2026-05-04 02:06 | 33.22409 | -116.31675 | 16539 ft | 322 kts | 210° |
| 2026-05-04 02:06 | 33.20395 | -116.32841 | 16114 ft | 322 kts | 210° |
| 2026-05-04 02:06 | 33.18476 | -116.33957 | 15707 ft | 321 kts | 209° |
| 2026-05-04 02:07 | 33.16465 | -116.35129 | 15284 ft | 322 kts | 209° |
| 2026-05-04 02:07 | 33.14457 | -116.36302 | 14859 ft | 322 kts | 209° |
| 2026-05-04 02:07 | 33.12441 | -116.37479 | 14402 ft | 322 kts | 209° |
| 2026-05-04 02:07 | 33.10431 | -116.38653 | 14001 ft | 321 kts | 209° |
| 2026-05-04 02:08 | 33.08425 | -116.39826 | 13554 ft | 322 kts | 209° |
| 2026-05-04 02:08 | 33.06422 | -116.40995 | 13105 ft | 320 kts | 209° |
| 2026-05-04 02:08 | 33.04430 | -116.42156 | 12657 ft | 317 kts | 209° |
| 2026-05-04 02:08 | 33.02469 | -116.43298 | 12455 ft | 308 kts | 209° |
| 2026-05-04 02:09 | 33.00588 | -116.44422 | 12264 ft | 297 kts | 213° |
| 2026-05-04 02:09 | 32.98944 | -116.45888 | 11889 ft | 294 kts | 222° |
| 2026-05-04 02:09 | 32.97406 | -116.47475 | 11506 ft | 291 kts | 223° |
| 2026-05-04 02:09 | 32.95892 | -116.49048 | 11158 ft | 287 kts | 223° |
| 2026-05-04 02:10 | 32.94394 | -116.50594 | 10822 ft | 284 kts | 222° |
| 2026-05-04 02:10 | 32.92895 | -116.52128 | 10479 ft | 284 kts | 222° |
| 2026-05-04 02:10 | 32.91417 | -116.53630 | 10336 ft | 275 kts | 222° |
| 2026-05-04 02:10 | 32.90459 | -116.54600 | 10253 ft | 270 kts | 222° |
| 2026-05-04 02:11 | 32.88583 | -116.56495 | 10098 ft | 259 kts | 222° |
| 2026-05-04 02:11 | 32.87230 | -116.57858 | 9988 ft | 251 kts | 222° |
| 2026-05-04 02:11 | 32.85908 | -116.59188 | 9777 ft | 249 kts | 222° |
| 2026-05-04 02:11 | 32.84591 | -116.60514 | 9499 ft | 247 kts | 222° |
| 2026-05-04 02:12 | 32.83285 | -116.61830 | 9222 ft | 245 kts | 221° |
| 2026-05-04 02:12 | 32.82003 | -116.63122 | 8943 ft | 244 kts | 221° |
| 2026-05-04 02:12 | 32.80693 | -116.64442 | 8665 ft | 243 kts | 221° |
| 2026-05-04 02:12 | 32.79423 | -116.65719 | 8390 ft | 242 kts | 221° |
| 2026-05-04 02:13 | 32.78139 | -116.67010 | 8115 ft | 242 kts | 221° |
| 2026-05-04 02:13 | 32.77028 | -116.68481 | 7848 ft | 241 kts | 239° |
| 2026-05-04 02:13 | 32.76219 | -116.70223 | 7616 ft | 243 kts | 240° |
| 2026-05-04 02:13 | 32.75384 | -116.72008 | 7373 ft | 246 kts | 240° |
| 2026-05-04 02:14 | 32.74555 | -116.73765 | 7142 ft | 249 kts | 240° |
| 2026-05-04 02:14 | 32.73708 | -116.75556 | 6870 ft | 248 kts | 239° |
| 2026-05-04 02:14 | 32.72854 | -116.77362 | 6629 ft | 247 kts | 240° |
| 2026-05-04 02:14 | 32.72025 | -116.79112 | 6380 ft | 246 kts | 240° |
| 2026-05-04 02:15 | 32.71187 | -116.80881 | 6105 ft | 246 kts | 240° |
| 2026-05-04 02:15 | 32.70417 | -116.82691 | 5815 ft | 246 kts | 248° |
| 2026-05-04 02:15 | 32.69821 | -116.84591 | 5538 ft | 245 kts | 250° |
| 2026-05-04 02:15 | 32.69256 | -116.86474 | 5235 ft | 240 kts | 250° |
| 2026-05-04 02:16 | 32.68703 | -116.88315 | 5031 ft | 231 kts | 251° |
| 2026-05-04 02:16 | 32.68194 | -116.90063 | 4941 ft | 219 kts | 251° |
| 2026-05-04 02:16 | 32.67687 | -116.91789 | 4526 ft | 221 kts | 252° |
| 2026-05-04 02:16 | 32.67473 | -116.93546 | 4173 ft | 213 kts | 279° |
| 2026-05-04 02:17 | 32.67751 | -116.95250 | 3954 ft | 209 kts | 279° |
| 2026-05-04 02:17 | 32.68046 | -116.96885 | 3717 ft | 196 kts | 283° |
| 2026-05-04 02:17 | 32.68386 | -116.98408 | 3485 ft | 186 kts | 285° |
| 2026-05-04 02:17 | 32.68735 | -116.99866 | 3264 ft | 182 kts | 285° |
| 2026-05-04 02:18 | 32.69091 | -117.01332 | 2962 ft | 188 kts | 285° |
| 2026-05-04 02:18 | 32.69296 | -117.02159 | 2801 ft | 185 kts | 285° |
| 2026-05-04 02:18 | 32.69641 | -117.03559 | 2738 ft | 170 kts | 285° |
| 2026-05-04 02:18 | 32.69949 | -117.04893 | 2465 ft | 165 kts | 285° |
| 2026-05-04 02:19 | 32.70258 | -117.06184 | 2250 ft | 160 kts | 285° |
| 2026-05-04 02:19 | 32.70562 | -117.07457 | 1946 ft | 160 kts | 285° |
| 2026-05-04 02:19 | 32.70873 | -117.08725 | 1671 ft | 159 kts | 285° |
| 2026-05-04 02:19 | 32.71157 | -117.09940 | 1490 ft | 150 kts | 284° |
| 2026-05-04 02:20 | 32.71449 | -117.11125 | 1347 ft | 146 kts | 287° |
| 2026-05-04 02:20 | 32.71738 | -117.12264 | 1194 ft | 142 kts | 284° |
| 2026-05-04 02:20 | 32.71993 | -117.13393 | 972 ft | 143 kts | 287° |
| 2026-05-04 02:20 | 32.72295 | -117.14521 | 750 ft | 144 kts | 285° |
| 2026-05-04 02:21 | 32.72569 | -117.15670 | 548 ft | 145 kts | 284° |
| 2026-05-04 02:21 | 32.72837 | -117.16820 | 292 ft | 143 kts | 285° |
| 2026-05-04 02:21 | 32.73109 | -117.17943 | 70 ft | 141 kts | 285° |
| 2026-05-04 02:21 | 32.73367 | -117.19008 | 22 ft | 118 kts | 286° |
| 2026-05-04 02:22 | 32.73553 | -117.19772 | 28 ft | 75 kts | 286° |
| 2026-05-04 02:22 | 32.73632 | -117.20103 | 22 ft | 22 kts | 285° |
| 2026-05-04 02:22 | 32.73600 | -117.20207 | 22 ft | 10 kts | 196° |
| 2026-05-04 02:22 | 32.73582 | -117.20213 | 22 ft | 0 kts | 195° |
| 2026-05-04 02:23 | 32.73577 | -117.20214 | 23 ft | 2 kts | 195° |
| 2026-05-04 02:23 | 32.73531 | -117.20230 | 21 ft | 12 kts | 196° |
| 2026-05-04 02:24 | 32.73435 | -117.20263 | 20 ft | 15 kts | 196° |
| 2026-05-04 02:24 | 32.73368 | -117.20274 | 20 ft | 7 kts | 171° |
| 2026-05-04 02:24 | 32.73328 | -117.20270 | 20 ft | 6 kts | 194° |
| 2026-05-04 02:24 | 32.73305 | -117.20310 | 20 ft | 7 kts | 255° |
| 2026-05-04 02:25 | 32.73297 | -117.20347 | 20 ft | 0 kts | 256° |